TimeCDT,TemperatureF,Dew PointF,Humidity,Sea Level PressureIn,VisibilityMPH,Wind Direction,Wind SpeedMPH,Gust SpeedMPH,PrecipitationIn,Events,Conditions,WindDirDegrees,DateUTC
12:53 AM,66.0,51.1,59,29.74,10.0,SE,15.0,28.8,N/A,,Clear,140,2013-09-26 05:53:00
1:53 AM,66.0,51.1,59,29.73,10.0,SE,18.4,25.3,N/A,,Clear,140,2013-09-26 06:53:00
2:53 AM,64.9,52.0,63,29.72,10.0,SE,20.7,26.5,N/A,,Clear,140,2013-09-26 07:53:00
3:53 AM,64.0,52.0,65,29.71,10.0,SE,16.1,26.5,N/A,,Clear,140,2013-09-26 08:53:00
4:53 AM,64.9,54.0,68,29.70,10.0,SE,15.0,24.2,N/A,,Clear,140,2013-09-26 09:53:00
5:53 AM,64.9,54.0,68,29.68,10.0,SE,23.0,31.1,N/A,,Mostly Cloudy,140,2013-09-26 10:53:00
6:53 AM,64.9,54.0,68,29.66,10.0,SE,23.0,29.9,N/A,,Mostly Cloudy,140,2013-09-26 11:53:00
7:53 AM,66.0,55.0,68,29.67,9.0,SE,19.6,29.9,N/A,,Mostly Cloudy,140,2013-09-26 12:53:00
8:53 AM,66.9,55.0,66,29.68,9.0,SE,20.7,31.1,N/A,,Clear,140,2013-09-26 13:53:00
9:53 AM,69.1,55.0,61,29.66,10.0,SSE,23.0,29.9,N/A,,Clear,150,2013-09-26 14:53:00
10:53 AM,73.0,55.9,55,29.66,10.0,SSE,20.7,29.9,N/A,,Clear,160,2013-09-26 15:53:00
11:53 AM,73.9,55.9,53,29.67,10.0,South,23.0,31.1,N/A,,Clear,170,2013-09-26 16:53:00
12:53 PM,75.0,55.9,51,29.66,10.0,South,20.7,34.5,N/A,,Overcast,170,2013-09-26 17:53:00
1:53 PM,77.0,57.0,50,29.65,10.0,South,19.6,27.6,N/A,,Mostly Cloudy,170,2013-09-26 18:53:00
2:53 PM,78.1,57.9,50,29.65,10.0,South,17.3,26.5,N/A,,Mostly Cloudy,170,2013-09-26 19:53:00
3:53 PM,82.0,57.0,42,29.65,10.0,SSW,20.7,29.9,N/A,,Partly Cloudy,200,2013-09-26 20:53:00
4:53 PM,81.0,57.0,44,29.66,10.0,South,19.6,25.3,N/A,,Scattered Clouds,190,2013-09-26 21:53:00
5:53 PM,80.1,57.0,45,29.68,10.0,SSW,12.7,20.7,N/A,,Clear,210,2013-09-26 22:53:00
6:04 PM,80.6,57.2,45,29.69,10.0,SW,9.2,-,N/A,,Partly Cloudy,220,2013-09-26 23:04:00
6:53 PM,75.9,57.0,52,29.69,10.0,SW,6.9,-,N/A,,Clear,220,2013-09-26 23:53:00
7:53 PM,73.0,57.0,57,29.70,10.0,SSW,3.5,-,N/A,,Clear,210,2013-09-27 00:53:00
8:53 PM,66.0,57.0,73,29.72,9.0,Calm,Calm,-,N/A,,Mostly Cloudy,0,2013-09-27 01:53:00
9:53 PM,66.9,57.0,70,29.74,8.0,WNW,4.6,-,N/A,,Clear,300,2013-09-27 02:53:00
10:53 PM,68.0,57.9,70,29.76,9.0,NW,12.7,-,N/A,,Scattered Clouds,320,2013-09-27 03:53:00
11:53 PM,66.0,55.9,70,29.77,10.0,North,11.5,-,N/A,,Overcast,350,2013-09-27 04:53:00